Time;durP1;ratioP1;P1;durP2;ratioP2;P2;SDS_P1;SDS_P2;PMS_P1;PMS_P2;Temp;Humidity;BMP_temperature;BMP_pressure;BME280_temperature;BME280_humidity;BME280_pressure;Samples;Min_cycle;Max_cycle;Signal;HPM_P1;HPM_P2
2023/04/22 00:01:04;;;;;;;9.37;7.97;;;7.90;99.90;;;;;;5079824;28;20461;-61
2023/04/22 00:03:33;;;;;;;8.80;7.33;;;7.80;99.90;;;;;;5079456;28;20524;-61
2023/04/22 00:06:00;;;;;;;9.77;8.73;;;7.70;99.90;;;;;;5079730;28;20465;-61
2023/04/22 00:08:28;;;;;;;8.60;7.07;;;7.70;99.90;;;;;;5079718;28;20462;-61
2023/04/22 00:10:55;;;;;;;10.90;7.70;;;7.70;99.90;;;;;;5080118;28;20932;-61
2023/04/22 00:13:22;;;;;;;9.40;7.70;;;7.70;99.90;;;;;;5079810;28;20457;-61
2023/04/22 00:15:50;;;;;;;10.60;7.87;;;7.70;99.90;;;;;;5079500;28;20465;-61
2023/04/22 00:18:17;;;;;;;7.90;7.07;;;7.60;99.90;;;;;;5079089;28;20519;-61
2023/04/22 00:20:45;;;;;;;7.53;6.83;;;7.60;99.90;;;;;;5079602;28;20737;-61
2023/04/22 00:23:13;;;;;;;10.17;8.33;;;7.60;99.90;;;;;;5078950;28;20507;-61
2023/04/22 00:25:40;;;;;;;9.03;8.10;;;7.60;99.90;;;;;;5078065;28;20860;-61
2023/04/22 00:28:08;;;;;;;7.77;6.93;;;7.60;99.90;;;;;;5077750;28;21009;-61
2023/04/22 00:30:35;;;;;;;8.20;7.17;;;7.60;99.90;;;;;;5078892;28;20469;-61
2023/04/22 00:33:03;;;;;;;8.07;6.73;;;7.70;99.90;;;;;;5078159;28;20852;-61
2023/04/22 00:35:30;;;;;;;8.20;7.40;;;7.70;99.90;;;;;;5078579;28;20552;-61
2023/04/22 00:37:59;;;;;;;8.43;7.53;;;7.80;99.90;;;;;;5078771;28;20436;-61
2023/04/22 00:40:26;;;;;;;10.67;7.33;;;7.70;99.90;;;;;;5078391;28;20560;-61
2023/04/22 00:42:54;;;;;;;10.57;8.70;;;7.70;99.90;;;;;;5079125;28;20492;-61
2023/04/22 00:45:22;;;;;;;10.27;8.40;;;7.80;99.90;;;;;;5079194;28;20540;-61
2023/04/22 00:47:49;;;;;;;12.40;8.17;;;7.70;99.90;;;;;;5079031;28;20493;-61
2023/04/22 00:50:16;;;;;;;12.77;8.40;;;7.70;99.90;;;;;;5078768;28;20982;-61
2023/04/22 00:52:44;;;;;;;11.63;8.30;;;7.70;99.90;;;;;;5078752;28;20463;-61
2023/04/22 00:55:13;;;;;;;9.00;8.10;;;7.80;99.90;;;;;;5078660;28;20472;-61
2023/04/22 00:57:41;;;;;;;9.50;8.10;;;7.80;99.90;;;;;;5078259;28;20548;-61
2023/04/22 01:00:09;;;;;;;9.60;8.60;;;7.80;99.90;;;;;;5078507;28;20555;-61
2023/04/22 01:02:37;;;;;;;9.50;7.93;;;7.80;99.90;;;;;;5078303;28;20949;-61
2023/04/22 01:05:06;;;;;;;10.37;8.50;;;7.90;99.90;;;;;;5078156;28;20571;-61
2023/04/22 01:07:34;;;;;;;8.23;7.03;;;7.80;99.90;;;;;;5077866;28;20461;-61
2023/04/22 01:10:02;;;;;;;10.30;8.40;;;7.80;99.90;;;;;;5078149;28;20466;-61
2023/04/22 01:12:30;;;;;;;9.20;7.63;;;7.80;99.90;;;;;;5078202;28;20507;-61
2023/04/22 01:14:58;;;;;;;9.07;7.80;;;7.80;99.90;;;;;;5078338;28;20556;-57
2023/04/22 01:17:25;;;;;;;10.00;7.33;;;7.70;99.90;;;;;;5077959;28;20536;-59
2023/04/22 01:19:54;;;;;;;8.27;7.40;;;7.70;99.90;;;;;;5077425;28;20465;-59
2023/04/22 01:22:22;;;;;;;8.40;7.13;;;7.70;99.90;;;;;;5077736;28;20546;-61
2023/04/22 01:24:51;;;;;;;8.47;6.93;;;7.70;99.90;;;;;;5078035;28;20461;-59
2023/04/22 01:27:19;;;;;;;7.77;6.97;;;7.70;99.90;;;;;;5077742;28;20499;-60
2023/04/22 01:29:47;;;;;;;8.07;7.27;;;7.70;99.90;;;;;;5077484;28;20467;-61
2023/04/22 01:32:14;;;;;;;7.70;6.90;;;7.70;99.90;;;;;;5077437;28;20457;-61
2023/04/22 01:34:42;;;;;;;8.80;6.83;;;7.80;99.90;;;;;;5077543;28;20492;-61
2023/04/22 01:37:09;;;;;;;8.03;7.23;;;7.80;99.90;;;;;;5077596;28;20469;-61
2023/04/22 01:39:37;;;;;;;7.73;6.30;;;7.80;99.90;;;;;;5077570;28;20807;-61
2023/04/22 01:42:06;;;;;;;7.50;6.13;;;7.80;99.90;;;;;;5077125;28;20497;-61
2023/04/22 01:44:33;;;;;;;10.57;7.10;;;7.80;99.90;;;;;;5077554;28;20446;-61
2023/04/22 01:47:00;;;;;;;7.30;6.60;;;7.90;99.90;;;;;;5077166;28;20556;-61
2023/04/22 01:49:27;;;;;;;7.00;6.30;;;7.90;99.90;;;;;;5076889;28;20488;-61
2023/04/22 01:51:55;;;;;;;6.17;5.60;;;7.90;99.90;;;;;;5077054;28;20555;-59
2023/04/22 01:54:22;;;;;;;8.83;6.43;;;7.90;99.90;;;;;;5077328;28;20843;-60
2023/04/22 01:56:53;;;;;;;6.43;5.83;;;7.90;99.90;;;;;;5077377;28;20465;-59
2023/04/22 01:59:22;;;;;;;6.50;5.73;;;7.90;99.90;;;;;;5077387;28;20461;-59
2023/04/22 02:01:49;;;;;;;6.20;5.57;;;7.80;99.90;;;;;;5076882;28;20967;-58
2023/04/22 02:04:16;;;;;;;6.93;5.73;;;7.80;99.90;;;;;;5077165;28;20587;-59
2023/04/22 02:06:43;;;;;;;6.80;6.00;;;7.80;99.90;;;;;;5077407;28;20493;-59
2023/04/22 02:09:11;;;;;;;7.40;6.67;;;7.80;99.90;;;;;;5077152;28;20470;-59
2023/04/22 02:11:38;;;;;;;7.47;6.67;;;7.90;99.90;;;;;;5077203;28;20836;-58
2023/04/22 02:14:05;;;;;;;7.40;6.57;;;7.90;99.90;;;;;;5077006;28;20495;-59
2023/04/22 02:16:33;;;;;;;7.03;5.97;;;7.90;99.90;;;;;;5077200;28;20461;-60
2023/04/22 02:19:01;;;;;;;7.63;6.87;;;8.00;99.90;;;;;;5077367;28;20462;-59
2023/04/22 02:21:31;;;;;;;5.83;5.33;;;8.00;99.90;;;;;;5076526;28;20500;-59
2023/04/22 02:23:58;;;;;;;6.33;5.67;;;8.00;99.90;;;;;;5076608;28;20514;-57
2023/04/22 02:26:25;;;;;;;8.00;6.60;;;8.00;99.90;;;;;;5077210;28;20937;-59
2023/04/22 02:28:52;;;;;;;7.50;6.77;;;8.10;99.90;;;;;;5077209;28;20487;-60
2023/04/22 02:31:19;;;;;;;7.30;6.60;;;8.10;99.90;;;;;;5076904;28;20461;-59
2023/04/22 02:33:48;;;;;;;7.53;6.73;;;8.10;99.90;;;;;;5076953;28;20536;-58
2023/04/22 02:36:15;;;;;;;5.87;5.30;;;8.10;99.90;;;;;;5076650;28;20495;-59
2023/04/22 02:38:42;;;;;;;8.77;6.33;;;8.10;99.90;;;;;;5076929;28;20804;-59
2023/04/22 02:41:10;;;;;;;7.30;6.50;;;8.20;99.90;;;;;;5076841;28;20457;-58
2023/04/22 02:43:37;;;;;;;6.63;5.93;;;8.20;99.90;;;;;;5076345;28;20493;-60
2023/04/22 02:46:04;;;;;;;9.10;6.53;;;8.20;99.90;;;;;;5076988;28;20860;-61
2023/04/22 02:48:31;;;;;;;7.67;6.47;;;8.20;99.90;;;;;;5078849;28;20465;-61
2023/04/22 02:51:00;;;;;;;7.97;6.57;;;8.20;99.90;;;;;;5080800;28;20736;-61
2023/04/22 02:53:27;;;;;;;6.70;6.00;;;8.20;99.90;;;;;;5080379;28;20453;-61
2023/04/22 02:55:55;;;;;;;6.23;5.63;;;8.20;99.90;;;;;;5080262;28;20438;-61
2023/04/22 02:58:23;;;;;;;7.00;6.30;;;8.20;99.90;;;;;;5080640;28;20469;-61
2023/04/22 03:00:50;;;;;;;7.80;6.13;;;8.30;99.90;;;;;;5080551;28;20475;-61
2023/04/22 03:03:17;;;;;;;8.70;6.53;;;8.20;99.90;;;;;;5080431;28;20546;-61
2023/04/22 03:05:44;;;;;;;8.40;6.27;;;8.20;99.90;;;;;;5080213;28;20754;-61
2023/04/22 03:08:13;;;;;;;7.40;6.60;;;8.30;99.90;;;;;;5080053;28;20465;-61
2023/04/22 03:10:40;;;;;;;7.10;6.40;;;8.40;99.90;;;;;;5080465;28;20556;-61
2023/04/22 03:13:08;;;;;;;7.20;6.50;;;8.40;99.90;;;;;;5080288;28;20461;-61
2023/04/22 03:15:35;;;;;;;7.40;6.67;;;8.40;99.90;;;;;;5080073;28;20571;-61
2023/04/22 03:18:02;;;;;;;7.37;6.60;;;8.40;99.90;;;;;;5080032;28;20549;-61
2023/04/22 03:20:29;;;;;;;6.50;5.80;;;8.40;99.90;;;;;;5080088;28;20555;-61
2023/04/22 03:22:56;;;;;;;7.33;6.43;;;8.40;99.90;;;;;;5080052;28;20572;-61
2023/04/22 03:25:25;;;;;;;8.60;7.20;;;8.50;99.90;;;;;;5080440;28;20863;-61
2023/04/22 03:27:52;;;;;;;8.10;6.37;;;8.50;99.90;;;;;;5079486;28;20519;-61
2023/04/22 03:30:20;;;;;;;8.10;6.77;;;8.60;99.90;;;;;;5079892;28;20530;-61
2023/04/22 03:32:47;;;;;;;8.00;6.60;;;8.60;99.90;;;;;;5079961;28;20769;-61
2023/04/22 03:35:14;;;;;;;7.43;6.73;;;8.70;99.90;;;;;;5079480;28;20461;-61
2023/04/22 03:37:41;;;;;;;7.20;6.50;;;8.70;99.90;;;;;;5079449;28;20461;-61
2023/04/22 03:40:10;;;;;;;7.90;6.20;;;8.70;99.90;;;;;;5079505;28;20499;-61
2023/04/22 03:42:39;;;;;;;7.00;6.30;;;8.80;99.90;;;;;;5079929;28;20461;-61
2023/04/22 03:45:07;;;;;;;7.77;6.53;;;8.80;99.90;;;;;;5079702;28;20912;-61
2023/04/22 03:47:34;;;;;;;7.20;6.50;;;8.90;99.90;;;;;;5079218;28;20514;-61
2023/04/22 03:50:01;;;;;;;6.97;6.27;;;8.90;99.90;;;;;;5079540;28;20846;-60
2023/04/22 03:52:29;;;;;;;7.30;5.63;;;8.90;99.90;;;;;;5079757;28;20483;-58
2023/04/22 03:54:56;;;;;;;6.50;5.90;;;8.80;99.90;;;;;;5078916;28;20501;-60
2023/04/22 03:57:23;;;;;;;8.17;7.27;;;8.80;99.90;;;;;;5079538;28;20547;-61
2023/04/22 03:59:51;;;;;;;7.63;5.97;;;8.80;99.90;;;;;;5078913;28;20467;-60
2023/04/22 04:02:19;;;;;;;7.33;6.33;;;8.80;99.90;;;;;;5079429;28;20556;-61
2023/04/22 04:04:46;;;;;;;7.70;7.00;;;8.70;99.90;;;;;;5079154;28;20584;-58
2023/04/22 04:07:14;;;;;;;9.00;7.00;;;8.70;99.90;;;;;;5079340;28;20496;-57
2023/04/22 04:09:41;;;;;;;7.37;6.20;;;8.70;99.90;;;;;;5079342;28;20469;-60
2023/04/22 04:12:09;;;;;;;7.73;6.80;;;8.70;99.90;;;;;;5079265;28;20468;-57
2023/04/22 04:14:36;;;;;;;7.57;6.20;;;8.70;99.90;;;;;;5079239;28;20522;-61
2023/04/22 04:17:08;;;;;;;8.30;7.40;;;8.70;99.90;;;;;;5078825;28;20505;-57
2023/04/22 04:19:35;;;;;;;8.53;6.80;;;8.70;99.90;;;;;;5078992;28;20469;-60
2023/04/22 04:22:02;;;;;;;7.13;6.30;;;8.70;99.90;;;;;;5078973;28;20465;-56
2023/04/22 04:24:30;;;;;;;7.10;6.40;;;8.70;99.90;;;;;;5078613;28;20493;-59
2023/04/22 04:26:57;;;;;;;6.97;6.27;;;8.60;99.90;;;;;;5078506;28;20575;-60
2023/04/22 04:29:25;;;;;;;6.97;6.10;;;8.70;99.90;;;;;;5078917;28;20468;-60
2023/04/22 04:31:52;;;;;;;7.50;6.70;;;8.80;99.90;;;;;;5078816;28;20465;-61
2023/04/22 04:34:21;;;;;;;7.87;7.07;;;8.80;99.90;;;;;;5079069;28;20531;-60
2023/04/22 04:36:49;;;;;;;8.60;6.20;;;8.80;99.90;;;;;;5078537;28;20482;-60
2023/04/22 04:39:18;;;;;;;6.97;5.73;;;8.90;99.90;;;;;;5078535;28;20512;-61
2023/04/22 04:41:48;;;;;;;7.00;6.00;;;8.90;99.90;;;;;;5078935;28;20944;-60
2023/04/22 04:44:15;;;;;;;6.97;6.27;;;8.90;99.90;;;;;;5078815;28;20464;-59
2023/04/22 04:46:43;;;;;;;6.00;5.40;;;8.90;99.90;;;;;;5078564;28;20470;-61
2023/04/22 04:49:11;;;;;;;7.50;6.30;;;8.90;99.90;;;;;;5078291;28;20560;-58
2023/04/22 04:51:40;;;;;;;7.13;6.03;;;8.90;99.90;;;;;;5078561;28;20465;-59
2023/04/22 04:54:07;;;;;;;7.27;6.33;;;8.90;99.90;;;;;;5078617;28;20458;-60
2023/04/22 04:56:34;;;;;;;7.10;5.90;;;8.90;99.90;;;;;;5077815;28;20497;-61
2023/04/22 04:59:01;;;;;;;6.97;6.27;;;8.90;99.90;;;;;;5077871;28;20467;-59
2023/04/22 05:01:28;;;;;;;6.53;5.83;;;8.90;99.90;;;;;;5078164;28;20925;-60
2023/04/22 05:03:56;;;;;;;8.20;6.07;;;8.90;99.90;;;;;;5077904;28;20963;-60
2023/04/22 05:06:23;;;;;;;7.07;5.33;;;9.10;99.90;;;;;;5077228;28;20551;-60
2023/04/22 05:08:52;;;;;;;5.83;5.23;;;9.10;99.90;;;;;;5077521;28;20478;-61
2023/04/22 05:11:19;;;;;;;6.40;5.70;;;9.30;99.90;;;;;;5077416;28;20940;-61
2023/04/22 05:13:46;;;;;;;5.27;4.70;;;9.30;99.90;;;;;;5078145;28;20495;-61
2023/04/22 05:16:13;;;;;;;4.47;4.03;;;9.40;99.90;;;;;;5077697;28;20507;-59
2023/04/22 05:18:40;;;;;;;6.07;5.33;;;9.50;99.90;;;;;;5076888;28;20556;-61
2023/04/22 05:21:08;;;;;;;5.80;4.80;;;9.60;99.90;;;;;;5077146;28;20514;-61
2023/04/22 05:23:35;;;;;;;4.83;4.43;;;9.60;1.70;;;;;;5077791;28;20493;-61
2023/04/22 05:26:04;;;;;;;5.40;4.90;;;9.60;99.90;;;;;;5077495;28;20468;-60
2023/04/22 05:28:31;;;;;;;5.27;4.77;;;9.70;1.00;;;;;;5076647;28;20528;-60
2023/04/22 05:30:58;;;;;;;5.67;5.10;;;9.80;99.90;;;;;;5075967;28;20463;-59
2023/04/22 05:33:25;;;;;;;6.87;5.00;;;9.90;1.00;;;;;;5076425;28;20457;-59
2023/04/22 05:35:53;;;;;;;5.97;4.77;;;10.00;99.90;;;;;;5076463;28;20476;-61
2023/04/22 05:38:20;;;;;;;4.70;4.20;;;10.20;99.90;;;;;;5077704;28;20809;-59
2023/04/22 05:40:49;;;;;;;4.80;4.20;;;10.30;1.00;;;;;;5077688;28;20559;-63
2023/04/22 05:43:17;;;;;;;5.53;4.70;;;10.50;1.00;;;;;;5077357;28;20556;-63
2023/04/22 05:45:45;;;;;;;5.43;4.90;;;10.60;99.90;;;;;;5076910;28;20560;-64
2023/04/22 05:48:12;;;;;;;5.37;4.70;;;10.60;99.90;;;;;;5077017;28;20555;-63
2023/04/22 05:50:39;;;;;;;4.53;4.10;;;10.70;99.90;;;;;;5075860;28;20465;-63
2023/04/22 05:53:07;;;;;;;7.57;5.47;;;10.80;99.90;;;;;;5075718;28;20540;-64
2023/04/22 05:55:34;;;;;;;5.20;4.57;;;10.90;99.90;;;;;;5075041;28;20450;-64
2023/04/22 05:58:03;;;;;;;4.87;4.37;;;11.00;28.40;;;;;;5074976;28;20486;-64
2023/04/22 06:00:32;;;;;;;5.70;4.40;;;11.10;28.30;;;;;;5075108;28;20481;-64
2023/04/22 06:02:59;;;;;;;4.60;3.80;;;11.10;54.50;;;;;;5075245;28;20748;-64
2023/04/22 06:05:27;;;;;;;5.60;4.50;;;11.20;1.00;;;;;;5074858;28;20489;-64
2023/04/22 06:07:54;;;;;;;5.40;4.90;;;11.40;1.00;;;;;;5075596;28;20453;-64
2023/04/22 06:10:21;;;;;;;4.80;3.90;;;11.40;1.00;;;;;;5075084;28;20851;-64
2023/04/22 06:12:48;;;;;;;5.90;4.40;;;11.40;1.00;;;;;;5073016;28;20918;-64
2023/04/22 06:15:16;;;;;;;5.27;4.30;;;11.50;1.00;;;;;;5075500;28;20453;-64
2023/04/22 06:17:44;;;;;;;5.03;4.53;;;11.50;1.00;;;;;;5074371;28;20746;-64
2023/04/22 06:20:12;;;;;;;4.67;4.17;;;11.60;1.00;;;;;;5075275;28;20546;-64
2023/04/22 06:22:40;;;;;;;5.53;4.53;;;11.60;1.00;;;;;;5076928;28;20461;-64
2023/04/22 06:25:07;;;;;;;4.70;4.30;;;11.70;1.00;;;;;;5079515;28;20485;-64
2023/04/22 06:27:35;;;;;;;4.73;4.33;;;11.80;1.00;;;;;;5079384;28;21009;-63
2023/04/22 06:30:02;;;;;;;4.50;4.00;;;11.80;1.00;;;;;;5079868;28;20465;-64
2023/04/22 06:32:29;;;;;;;5.30;4.67;;;11.90;1.00;;;;;;5079904;28;20547;-63
2023/04/22 06:34:58;;;;;;;4.63;4.23;;;12.00;1.00;;;;;;5079850;28;20514;-63
2023/04/22 06:37:25;;;;;;;5.53;4.63;;;12.10;1.00;;;;;;5079442;28;20465;-61
2023/04/22 06:39:53;;;;;;;5.83;4.10;;;12.30;1.00;;;;;;5079483;28;20465;-63
2023/04/22 06:42:20;;;;;;;4.40;3.40;;;12.30;1.00;;;;;;5079194;28;20563;-64
2023/04/22 06:44:47;;;;;;;4.40;4.00;;;12.30;1.00;;;;;;5079712;28;20501;-64
2023/04/22 06:47:14;;;;;;;4.93;3.87;;;12.40;1.00;;;;;;5081099;28;20483;-64
2023/04/22 06:49:43;;;;;;;5.33;4.10;;;12.50;1.00;;;;;;5080619;28;20465;-63
2023/04/22 06:52:12;;;;;;;4.87;3.80;;;12.50;1.00;;;;;;5081025;28;20514;-64
2023/04/22 06:54:39;;;;;;;4.30;3.70;;;12.60;1.00;;;;;;5080669;28;20938;-64
2023/04/22 06:57:07;;;;;;;3.80;3.43;;;12.60;1.00;;;;;;5080395;28;20465;-64
2023/04/22 06:59:34;;;;;;;5.03;3.53;;;12.60;1.00;;;;;;5080533;28;20461;-64
2023/04/22 07:02:02;;;;;;;3.70;3.40;;;12.60;1.00;;;;;;5073352;28;20895;-62
2023/04/22 07:04:30;;;;;;;4.73;3.40;;;12.70;1.00;;;;;;5060153;28;20489;-63
2023/04/22 07:06:58;;;;;;;4.87;3.70;;;12.90;1.00;;;;;;5060420;28;20466;-60
2023/04/22 07:09:27;;;;;;;3.80;3.50;;;13.10;1.00;;;;;;5067218;28;20484;-64
2023/04/22 07:11:57;;;;;;;3.67;3.27;;;13.40;1.00;;;;;;5060091;28;20458;-64
2023/04/22 07:14:26;;;;;;;4.83;3.40;;;13.70;1.00;;;;;;5065203;28;20476;-64
2023/04/22 07:16:53;;;;;;;3.70;3.17;;;13.80;1.00;;;;;;5074989;28;20444;-64
2023/04/22 07:19:21;;;;;;;4.33;3.57;;;13.70;99.90;;;;;;5078314;28;20936;-64
2023/04/22 07:21:48;;;;;;;4.13;3.73;;;13.80;1.00;;;;;;5078302;28;20500;-63
2023/04/22 07:24:15;;;;;;;3.90;3.40;;;14.10;1.00;;;;;;5079941;28;20991;-63
2023/04/22 07:26:45;;;;;;;3.60;3.30;;;14.40;1.00;;;;;;5079769;28;20500;-61
2023/04/22 07:29:12;;;;;;;6.83;3.40;;;14.80;99.90;;;;;;5079843;28;20464;-63
2023/04/22 07:31:40;;;;;;;5.13;3.83;;;15.30;99.90;;;;;;5079822;28;20466;-63
2023/04/22 07:34:09;;;;;;;4.77;3.53;;;15.80;1.00;;;;;;5079718;28;20546;-63
2023/04/22 07:36:36;;;;;;;5.00;3.67;;;16.20;99.90;;;;;;5078751;28;20465;-63
2023/04/22 07:39:04;;;;;;;3.53;3.23;;;16.50;99.90;;;;;;5078704;28;20461;-63
2023/04/22 07:41:31;;;;;;;4.00;3.60;;;16.90;99.90;;;;;;5078685;28;20918;-62
2023/04/22 07:44:00;;;;;;;4.13;3.30;;;17.30;99.90;;;;;;5078181;28;20487;-62
2023/04/22 07:46:27;;;;;;;6.13;3.33;;;17.70;99.90;;;;;;5078343;28;20457;-62
2023/04/22 07:48:55;;;;;;;3.90;3.50;;;17.90;99.90;;;;;;5078579;28;20531;-63
2023/04/22 07:51:22;;;;;;;4.13;3.73;;;17.60;99.90;;;;;;5079129;28;20896;-63
2023/04/22 07:53:49;;;;;;;3.77;3.37;;;17.60;99.90;;;;;;5079646;28;20467;-62
2023/04/22 07:56:16;;;;;;;4.10;3.17;;;17.80;99.90;;;;;;5079346;28;20536;-62
2023/04/22 07:58:43;;;;;;;4.70;3.20;;;17.90;99.90;;;;;;5079650;28;20750;-63
2023/04/22 08:01:12;;;;;;;10.83;7.80;;;17.70;99.90;;;;;;5079284;28;20497;-62
2023/04/22 08:03:39;;;;;;;4.00;3.70;;;17.80;99.90;;;;;;5079505;28;20480;-61
2023/04/22 08:06:07;;;;;;;3.60;3.30;;;17.90;99.90;;;;;;5079280;28;20489;-62
2023/04/22 08:08:34;;;;;;;4.20;3.80;;;18.00;99.90;;;;;;5079413;28;20722;-61
2023/04/22 08:11:01;;;;;;;3.53;3.00;;;18.20;99.90;;;;;;5079048;28;20563;-62
2023/04/22 08:13:29;;;;;;;3.70;2.97;;;18.60;99.90;;;;;;5079249;28;20520;-59
2023/04/22 08:15:56;;;;;;;4.23;3.73;;;18.70;99.90;;;;;;5078821;28;20556;-63
2023/04/22 08:18:25;;;;;;;3.30;3.00;;;18.70;99.90;;;;;;5078553;28;20544;-59
2023/04/22 08:20:52;;;;;;;3.50;3.20;;;18.50;99.90;;;;;;5069092;28;20518;-59
2023/04/22 08:23:20;;;;;;;3.27;2.97;;;18.70;99.90;;;;;;5076406;28;20497;-62
2023/04/22 08:25:47;;;;;;;3.50;2.93;;;18.70;99.90;;;;;;5070371;28;20802;-62
2023/04/22 08:28:15;;;;;;;4.07;3.50;;;18.70;99.90;;;;;;5076513;28;20771;-62
2023/04/22 08:30:42;;;;;;;3.03;2.83;;;18.60;99.90;;;;;;5077356;28;20960;-61
2023/04/22 08:33:09;;;;;;;4.07;3.57;;;18.40;99.90;;;;;;5076866;28;20941;-60
2023/04/22 08:35:38;;;;;;;3.33;3.03;;;18.50;99.90;;;;;;5076034;28;20464;-61
2023/04/22 08:38:05;;;;;;;3.90;3.20;;;18.80;99.90;;;;;;5076782;28;20473;-60
2023/04/22 08:40:34;;;;;;;3.63;3.33;;;19.10;99.90;;;;;;5077256;28;20528;-60
2023/04/22 08:43:01;;;;;;;5.20;3.33;;;19.20;99.90;;;;;;5078570;28;20564;-57
2023/04/22 08:45:29;;;;;;;4.97;3.43;;;19.20;99.90;;;;;;5075082;28;20515;-61
2023/04/22 08:47:58;;;;;;;3.17;2.87;;;19.40;99.90;;;;;;5074061;28;20755;-59
2023/04/22 08:50:25;;;;;;;7.07;2.87;;;19.40;99.90;;;;;;5074736;28;20974;-57
2023/04/22 08:52:53;;;;;;;3.80;3.40;;;19.60;99.90;;;;;;5070420;28;20448;-60
2023/04/22 08:55:21;;;;;;;4.47;3.43;;;19.60;99.90;;;;;;5072813;28;20581;-61
2023/04/22 08:57:49;;;;;;;3.00;2.70;;;19.80;99.90;;;;;;5069328;28;20932;-57
2023/04/22 09:00:17;;;;;;;4.07;3.30;;;19.90;99.90;;;;;;5071171;28;20492;-58
2023/04/22 09:02:46;;;;;;;3.03;2.73;;;20.10;99.90;;;;;;5076150;28;20471;-61
2023/04/22 09:05:14;;;;;;;3.60;3.30;;;20.00;99.90;;;;;;5075333;28;20488;-62
2023/04/22 09:07:42;;;;;;;3.40;3.10;;;19.70;99.90;;;;;;5072380;28;20469;-61
2023/04/22 09:10:11;;;;;;;5.30;3.57;;;19.30;99.90;;;;;;5070410;28;20473;-58
2023/04/22 09:12:40;;;;;;;3.90;3.60;;;18.80;99.90;;;;;;5066567;28;20470;-59
2023/04/22 09:15:08;;;;;;;4.60;3.30;;;18.60;99.90;;;;;;5066670;28;20882;-59
2023/04/22 09:17:37;;;;;;;3.30;3.00;;;18.80;99.90;;;;;;5074409;28;20518;-60
2023/04/22 09:20:07;;;;;;;4.17;3.20;;;19.00;99.90;;;;;;5074682;28;20461;-56
2023/04/22 09:22:39;;;;;;;3.70;2.60;;;19.50;99.90;;;;;;5072822;28;20548;-58
2023/04/22 09:25:14;;;;;;;3.17;2.97;;;20.10;99.90;;;;;;5071429;28;21032;-57
2023/04/22 09:27:42;;;;;;;3.17;2.87;;;20.70;99.90;;;;;;5073573;28;20925;-60
2023/04/22 09:30:10;;;;;;;3.70;3.40;;;20.90;99.90;;;;;;5075033;28;20772;-60
2023/04/22 09:32:40;;;;;;;3.27;2.97;;;20.80;99.90;;;;;;5075416;28;20860;-59
2023/04/22 09:35:08;;;;;;;2.93;2.73;;;21.20;99.90;;;;;;5074382;28;20924;-60
2023/04/22 09:37:35;;;;;;;3.87;2.73;;;21.20;99.90;;;;;;5074322;28;20465;-61
2023/04/22 09:40:03;;;;;;;3.40;3.10;;;21.10;99.90;;;;;;5073978;28;20531;-59
2023/04/22 09:42:31;;;;;;;3.83;3.03;;;20.90;99.90;;;;;;5073597;28;20500;-58
2023/04/22 09:44:59;;;;;;;3.00;2.70;;;20.50;99.90;;;;;;5063048;28;20575;-57
2023/04/22 09:47:35;;;;;;;3.30;3.00;;;20.40;99.90;;;;;;5062984;28;20472;-60
2023/04/22 09:50:04;;;;;;;3.30;3.00;;;20.80;99.90;;;;;;5072233;28;20562;-58
2023/04/22 09:52:33;;;;;;;5.03;3.27;;;21.10;99.90;;;;;;5075026;28;20819;-57
2023/04/22 09:55:00;;;;;;;5.63;3.67;;;21.40;99.90;;;;;;5073137;28;20465;-62
2023/04/22 09:57:27;;;;;;;3.67;3.37;;;21.50;99.90;;;;;;5073183;28;20526;-59
2023/04/22 09:59:59;;;;;;;3.20;3.00;;;21.50;99.90;;;;;;5076493;28;20564;-54
2023/04/22 10:02:29;;;;;;;3.40;3.10;;;21.60;99.90;;;;;;5075044;28;20548;-60
2023/04/22 10:04:57;;;;;;;3.33;3.03;;;21.60;99.90;;;;;;5068936;28;20497;-60
2023/04/22 10:07:30;;;;;;;3.73;3.10;;;21.60;99.90;;;;;;5072465;28;20469;-61
2023/04/22 10:09:57;;;;;;;3.20;2.90;;;21.70;99.90;;;;;;5068704;28;20497;-58
2023/04/22 10:12:26;;;;;;;5.57;3.20;;;22.00;99.90;;;;;;5074887;28;20465;-61
2023/04/22 10:14:55;;;;;;;3.30;3.00;;;22.40;99.90;;;;;;5068448;28;20898;-61
2023/04/22 10:17:22;;;;;;;4.63;3.00;;;22.40;99.90;;;;;;5073587;28;20496;-62
2023/04/22 10:19:50;;;;;;;17.07;5.13;;;22.20;99.90;;;;;;5073415;28;20461;-59
2023/04/22 10:22:17;;;;;;;12.43;4.20;;;22.30;99.90;;;;;;5074051;28;20499;-61
2023/04/22 10:24:49;;;;;;;5.07;3.20;;;22.40;99.90;;;;;;5074886;28;20457;-62
2023/04/22 10:27:21;;;;;;;4.33;3.33;;;22.40;99.90;;;;;;5074685;28;20575;-55
2023/04/22 10:29:48;;;;;;;5.00;3.23;;;22.20;99.90;;;;;;5075086;28;20898;-61
2023/04/22 10:32:27;;;;;;;2.73;2.47;;;21.80;99.90;;;;;;5074507;28;20461;-62
2023/04/22 10:35:15;;;;;;;3.33;3.03;;;21.50;99.90;;;;;;5075389;28;20762;-60
2023/04/22 10:37:44;;;;;;;4.07;3.10;;;21.60;99.90;;;;;;5074520;28;20510;-62
2023/04/22 10:40:16;;;;;;;3.93;3.53;;;21.50;99.90;;;;;;5075397;28;20891;-61
2023/04/22 10:42:46;;;;;;;2.73;2.53;;;22.00;99.90;;;;;;5075232;28;20480;-62
2023/04/22 10:45:15;;;;;;;3.13;2.93;;;22.20;99.90;;;;;;5075190;28;20535;-61
2023/04/22 10:47:44;;;;;;;3.27;2.97;;;22.30;99.90;;;;;;5075329;28;20457;-58
2023/04/22 10:50:17;;;;;;;3.83;3.07;;;22.60;99.90;;;;;;5076848;28;20890;-60
2023/04/22 10:52:48;;;;;;;3.70;3.30;;;23.00;99.90;;;;;;5075220;28;20745;-62
2023/04/22 10:55:16;;;;;;;3.37;3.07;;;22.90;99.90;;;;;;5074459;28;20453;-61
2023/04/22 10:57:45;;;;;;;5.23;3.40;;;22.30;99.90;;;;;;5076459;28;20502;-61
2023/04/22 11:00:31;;;;;;;4.53;3.20;;;21.60;99.90;;;;;;5076713;28;20457;-62
2023/04/22 11:03:15;;;;;;;3.93;3.53;;;21.30;99.90;;;;;;5076483;28;20503;-59
2023/04/22 11:05:42;;;;;;;4.40;3.50;;;21.60;99.90;;;;;;5074763;28;20792;-59
2023/04/22 11:08:15;;;;;;;4.80;3.40;;;21.50;99.90;;;;;;5075145;28;20515;-58
2023/04/22 11:10:44;;;;;;;4.10;2.90;;;20.80;99.90;;;;;;5079043;28;20461;-60
2023/04/22 11:13:14;;;;;;;3.53;3.23;;;20.80;99.90;;;;;;5078577;28;20504;-62
2023/04/22 11:15:42;;;;;;;3.70;3.40;;;20.70;99.90;;;;;;5078533;28;20532;-61
2023/04/22 11:18:15;;;;;;;3.80;3.40;;;20.80;99.90;;;;;;5078317;28;20488;-62
2023/04/22 11:20:42;;;;;;;4.53;3.47;;;20.90;99.90;;;;;;5080444;28;20469;-62
2023/04/22 11:23:09;;;;;;;3.70;3.40;;;21.30;99.90;;;;;;5080289;28;20465;-59
2023/04/22 11:25:37;;;;;;;6.20;3.90;;;21.80;99.90;;;;;;5079027;28;20496;-62
2023/04/22 11:28:04;;;;;;;3.17;2.73;;;21.90;99.90;;;;;;5070393;28;20984;-61
2023/04/22 11:30:31;;;;;;;5.83;3.37;;;21.80;99.90;;;;;;5077673;28;20493;-59
2023/04/22 11:33:00;;;;;;;6.17;4.20;;;22.00;99.90;;;;;;5077711;28;20577;-62
2023/04/22 11:35:31;;;;;;;3.70;3.40;;;21.80;99.90;;;;;;5077521;28;20467;-62
2023/04/22 11:38:07;;;;;;;5.90;4.33;;;21.70;99.90;;;;;;5076962;28;20951;-60
2023/04/22 11:40:36;;;;;;;3.50;3.20;;;21.90;99.90;;;;;;5076762;28;20488;-59
2023/04/22 11:43:04;;;;;;;4.87;4.00;;;21.80;99.90;;;;;;5069754;28;20465;-60
2023/04/22 11:45:33;;;;;;;3.47;2.80;;;22.20;99.90;;;;;;5076629;28;20492;-59
2023/04/22 11:48:01;;;;;;;4.17;3.87;;;22.50;99.90;;;;;;5076244;28;20464;-63
2023/04/22 11:50:33;;;;;;;4.33;3.70;;;22.60;99.90;;;;;;5076223;28;20460;-61
2023/04/22 11:53:02;;;;;;;3.70;3.40;;;21.80;99.90;;;;;;5077230;28;20462;-61
2023/04/22 11:55:31;;;;;;;3.90;3.60;;;21.30;99.90;;;;;;5077436;28;20493;-60
2023/04/22 11:58:00;;;;;;;4.73;4.33;;;21.00;99.90;;;;;;5078097;28;20564;-61
2023/04/22 12:00:32;;;;;;;3.93;3.30;;;21.30;99.90;;;;;;5077068;28;20469;-60
2023/04/22 12:03:01;;;;;;;3.97;3.57;;;22.40;99.90;;;;;;5079561;28;20746;-60
2023/04/22 12:05:40;;;;;;;4.63;4.10;;;23.50;99.90;;;;;;5078987;28;20934;-61
2023/04/22 12:08:09;;;;;;;5.03;3.90;;;24.20;99.90;;;;;;5079528;28;20492;-61
2023/04/22 12:10:41;;;;;;;4.30;3.90;;;23.60;99.90;;;;;;5079200;28;20748;-60
2023/04/22 12:13:09;;;;;;;4.30;3.90;;;23.00;99.90;;;;;;5079156;28;20462;-59
2023/04/22 12:15:41;;;;;;;3.80;3.50;;;22.70;99.90;;;;;;5079055;28;20461;-61
2023/04/22 12:18:10;;;;;;;4.27;3.60;;;22.80;99.90;;;;;;5078881;28;20471;-61
2023/04/22 12:20:40;;;;;;;4.13;3.70;;;22.50;99.90;;;;;;5077653;28;20461;-61
2023/04/22 12:23:14;;;;;;;4.00;3.60;;;22.40;99.90;;;;;;5079115;28;20812;-61
2023/04/22 12:25:41;;;;;;;5.73;3.70;;;22.00;99.90;;;;;;5078494;28;20764;-53
2023/04/22 12:28:09;;;;;;;4.73;4.33;;;21.50;99.90;;;;;;5077017;28;20528;-61
2023/04/22 12:30:37;;;;;;;4.00;3.60;;;21.00;99.90;;;;;;5075530;28;20456;-61
2023/04/22 12:33:05;;;;;;;4.07;3.60;;;20.80;99.90;;;;;;5077398;28;20591;-57
2023/04/22 12:35:32;;;;;;;3.67;3.37;;;21.30;99.90;;;;;;5076828;28;20570;-59
2023/04/22 12:38:01;;;;;;;3.73;3.43;;;22.00;99.90;;;;;;5078029;28;20462;-58
2023/04/22 12:40:28;;;;;;;4.63;4.23;;;22.40;99.90;;;;;;5078536;28;20489;-56
2023/04/22 12:42:56;;;;;;;4.10;3.80;;;22.70;99.90;;;;;;5078626;28;20465;-58
2023/04/22 12:45:23;;;;;;;6.30;4.03;;;23.30;99.90;;;;;;5078731;28;20453;-61
2023/04/22 12:47:52;;;;;;;5.67;4.40;;;23.50;99.90;;;;;;5078444;28;20488;-59
2023/04/22 12:50:20;;;;;;;3.90;3.60;;;23.40;99.90;;;;;;5077810;28;20902;-59
2023/04/22 12:52:47;;;;;;;4.00;3.37;;;23.80;99.90;;;;;;5077437;28;20547;-60
2023/04/22 12:55:16;;;;;;;5.10;3.83;;;24.00;99.90;;;;;;5076552;28;20461;-62
2023/04/22 12:57:45;;;;;;;5.40;3.63;;;23.10;99.90;;;;;;5056843;28;20461;-57